Time;durP1;ratioP1;P1;durP2;ratioP2;P2;SDS_P1;SDS_P2;PMS_P1;PMS_P2;Temp;Humidity;BMP_temperature;BMP_pressure;BME280_temperature;BME280_humidity;BME280_pressure;Samples;Min_cycle;Max_cycle;Signal;HPM_P1;HPM_P2
2021/10/28 00:14:21;;;;;;;0.35;0.35;;;;;;;25.43;35.57;97121.59;5029174;28;20080;-62
2021/10/28 00:16:49;;;;;;;0.40;0.40;;;;;;;25.43;35.38;97120.72;5011244;28;20029;-64
2021/10/28 00:19:15;;;;;;;0.32;0.28;;;;;;;25.43;35.49;97115.47;5030080;28;20480;-63
2021/10/28 00:21:40;;;;;;;0.43;0.43;;;;;;;25.43;35.45;97118.09;5030036;28;20028;-63
2021/10/28 00:24:09;;;;;;;0.25;0.25;;;;;;;25.43;35.40;97112.84;5014977;28;20055;-63
2021/10/28 00:26:35;;;;;;;0.60;0.50;;;;;;;25.42;35.63;97109.41;5030547;28;20024;-63
2021/10/28 00:29:05;;;;;;;0.40;0.40;;;;;;;25.43;35.36;97115.47;5029495;28;20024;-63
2021/10/28 00:31:32;;;;;;;0.70;0.52;;;;;;;25.43;35.48;97115.47;5030115;28;20434;-63
2021/10/28 00:33:58;;;;;;;0.30;0.30;;;;;;;25.42;35.57;97119.91;5029595;28;20500;-63
2021/10/28 00:36:24;;;;;;;0.50;0.50;;;;;;;25.42;35.38;97104.16;5028668;28;20044;-63
2021/10/28 00:38:50;;;;;;;0.60;0.40;;;;;;;25.42;35.50;97105.91;5031114;28;20022;-61
2021/10/28 00:41:18;;;;;;;0.30;0.28;;;;;;;25.41;35.41;97110.34;5014036;28;20044;-63
2021/10/28 00:43:51;;;;;;;0.20;0.20;;;;;;;25.42;35.42;97104.16;5034526;28;20017;-63
2021/10/28 00:46:18;;;;;;;0.30;0.30;;;;;;;25.42;35.50;97101.53;5033150;28;20403;-64
2021/10/28 00:48:44;;;;;;;0.90;0.60;;;;;;;25.42;35.50;97103.28;5031713;28;20152;-63
2021/10/28 00:51:09;;;;;;;0.40;0.40;;;;;;;25.40;35.42;97098.13;5014424;28;20082;-63
2021/10/28 00:53:35;;;;;;;0.60;0.40;;;;;;;25.41;35.53;97101.59;5032107;28;20029;-63
2021/10/28 00:56:02;;;;;;;0.43;0.30;;;;;;;25.42;35.38;97105.91;5032229;28;20500;-64
2021/10/28 00:58:32;;;;;;;0.50;0.40;;;;;;;25.41;35.37;97101.59;5015012;28;20112;-64
2021/10/28 01:00:59;;;;;;;0.40;0.40;;;;;;;25.41;35.50;97104.22;5033749;28;20049;-63
2021/10/28 01:03:24;;;;;;;0.73;0.30;;;;;;;25.41;35.47;97109.47;5014568;28;20110;-64
2021/10/28 01:05:50;;;;;;;0.38;0.30;;;;;;;25.40;35.33;97105.97;5030863;28;20037;-64
2021/10/28 01:08:18;;;;;;;0.47;0.47;;;;;;;25.41;35.26;97106.84;5013206;28;20104;-63
2021/10/28 01:10:48;;;;;;;0.50;0.50;;;;;;;25.40;35.41;97103.34;5032403;28;20056;-64
2021/10/28 01:13:17;;;;;;;0.30;0.30;;;;;;;25.38;35.47;97093.88;5030648;28;20032;-64
2021/10/28 01:15:43;;;;;;;0.38;0.38;;;;;;;25.40;35.32;97105.16;5032181;28;20124;-64
2021/10/28 01:18:09;;;;;;;0.30;0.30;;;;;;;25.39;35.42;97096.41;5033025;28;20636;-63
2021/10/28 01:20:36;;;;;;;0.75;0.30;;;;;;;25.40;35.33;97099.91;5017572;28;20435;-62
2021/10/28 01:23:02;;;;;;;0.52;0.52;;;;;;;25.39;35.34;97087.69;5030697;28;20029;-63
2021/10/28 01:25:27;;;;;;;0.38;0.38;;;;;;;25.39;35.42;97092.94;5031468;28;20048;-63
2021/10/28 01:27:53;;;;;;;0.28;0.28;;;;;;;25.38;35.29;97086.84;5001279;28;20033;-63
2021/10/28 01:30:18;;;;;;;0.45;0.45;;;;;;;25.39;35.50;97093.78;5015283;28;20021;-62
2021/10/28 01:32:44;;;;;;;0.50;0.45;;;;;;;25.36;35.34;97083.44;5031512;28;20048;-63
2021/10/28 01:35:10;;;;;;;0.30;0.30;;;;;;;25.38;35.45;97088.63;5016034;28;20028;-64
2021/10/28 01:37:40;;;;;;;0.75;0.40;;;;;;;25.37;35.39;97086.91;5030644;28;20029;-64
2021/10/28 01:40:06;;;;;;;0.20;0.20;;;;;;;25.38;35.29;97088.63;5033994;28;20036;-64
2021/10/28 01:42:32;;;;;;;0.45;0.45;;;;;;;25.36;35.35;97088.69;5031754;28;20515;-64
2021/10/28 01:44:59;;;;;;;0.30;0.30;;;;;;;25.37;35.04;97081.69;5032387;28;20044;-63
2021/10/28 01:47:24;;;;;;;0.43;0.43;;;;;;;25.36;35.28;97087.84;5032107;28;20470;-63
2021/10/28 01:49:49;;;;;;;0.70;0.63;;;;;;;25.37;35.29;97079.06;5031302;28;20334;-63
2021/10/28 01:52:15;;;;;;;0.50;0.50;;;;;;;25.36;35.28;97077.34;5030439;28;20025;-62
2021/10/28 01:54:40;;;;;;;0.30;0.30;;;;;;;25.35;35.25;97078.28;5030181;28;20024;-64
2021/10/28 01:57:15;;;;;;;0.50;0.40;;;;;;;25.34;35.19;97080.06;5014709;28;20040;-63
2021/10/28 01:59:41;;;;;;;0.28;0.28;;;;;;;25.34;35.33;97085.28;5021425;28;20041;-64
2021/10/28 02:02:06;;;;;;;0.30;0.30;;;;;;;25.34;35.23;97082.66;5020008;28;20040;-63
2021/10/28 02:04:31;;;;;;;0.43;0.28;;;;;;;25.35;35.32;97086.16;5032429;28;20025;-63
2021/10/28 02:06:57;;;;;;;0.60;0.50;;;;;;;25.30;35.40;97079.34;5032795;28;20075;-63
2021/10/28 02:09:22;;;;;;;0.40;0.40;;;;;;;25.34;35.33;97087.06;5031560;28;20020;-64
2021/10/28 02:11:48;;;;;;;0.38;0.38;;;;;;;25.33;35.34;97077.50;5033036;28;20021;-64
2021/10/28 02:14:13;;;;;;;0.60;0.60;;;;;;;25.33;35.15;97077.50;5031616;28;20408;-64
2021/10/28 02:16:38;;;;;;;0.38;0.38;;;;;;;25.33;35.27;97074.88;5032750;28;20030;-63
2021/10/28 02:19:04;;;;;;;0.38;0.38;;;;;;;25.33;35.34;97067.00;5029881;28;20508;-64
2021/10/28 02:21:30;;;;;;;0.50;0.50;;;;;;;25.30;35.39;97068.84;5016465;28;20021;-64
2021/10/28 02:23:55;;;;;;;0.40;0.40;;;;;;;25.30;35.28;97071.47;5033001;28;20491;-65
2021/10/28 02:26:21;;;;;;;0.38;0.38;;;;;;;25.31;35.33;97069.69;5031434;28;20075;-64
2021/10/28 02:28:47;;;;;;;0.40;0.40;;;;;;;25.30;35.30;97073.25;5029959;28;20036;-64
2021/10/28 02:31:13;;;;;;;0.50;0.50;;;;;;;25.30;35.33;97070.63;5014707;28;20112;-64
2021/10/28 02:33:38;;;;;;;0.40;0.40;;;;;;;25.30;35.18;97074.09;5030798;28;20507;-64
2021/10/28 02:36:04;;;;;;;0.40;0.40;;;;;;;25.29;35.15;97068.94;5029561;28;20029;-64
2021/10/28 02:38:29;;;;;;;0.57;0.57;;;;;;;25.30;35.24;97070.63;5032538;28;20038;-64
2021/10/28 02:40:55;;;;;;;0.40;0.40;;;;;;;25.29;35.08;97077.63;5030663;28;20029;-64
2021/10/28 02:43:20;;;;;;;0.50;0.50;;;;;;;25.29;35.10;97066.31;5029234;28;20523;-64
2021/10/28 02:45:47;;;;;;;0.55;0.55;;;;;;;25.29;35.31;97063.69;5030239;28;20033;-65
2021/10/28 02:48:12;;;;;;;0.80;0.80;;;;;;;25.28;35.15;97068.06;5031710;28;20024;-64
2021/10/28 02:50:38;;;;;;;1.58;0.65;;;;;;;25.26;34.99;97066.44;5031983;28;20586;-63
2021/10/28 02:53:03;;;;;;;0.68;0.52;;;;;;;25.27;35.13;97069.00;5027481;28;20025;-63
2021/10/28 02:55:29;;;;;;;0.60;0.50;;;;;;;25.27;35.24;97066.38;5015062;28;20289;-63
2021/10/28 02:57:54;;;;;;;0.45;0.45;;;;;;;25.25;35.21;97067.38;5032431;28;20033;-64
2021/10/28 03:00:19;;;;;;;0.57;0.47;;;;;;;25.27;35.09;97071.63;5029963;28;20028;-62
2021/10/28 03:02:45;;;;;;;0.70;0.60;;;;;;;25.27;35.25;97068.13;5028508;28;20526;-64
2021/10/28 03:05:11;;;;;;;0.50;0.50;;;;;;;25.27;35.17;97063.75;5028536;28;20025;-64
2021/10/28 03:07:37;;;;;;;0.95;0.47;;;;;;;25.26;35.24;97056.81;5029551;28;20061;-64
2021/10/28 03:10:04;;;;;;;0.70;0.70;;;;;;;25.26;35.05;97061.19;5028810;28;20552;-64
2021/10/28 03:12:30;;;;;;;0.68;0.68;;;;;;;25.25;35.02;97057.72;5028843;28;20025;-65
2021/10/28 03:14:58;;;;;;;0.75;0.63;;;;;;;25.25;35.04;97055.09;5011291;28;20512;-65
2021/10/28 03:27:45;;;;;;;0.60;0.60;;;;;;;25.24;34.95;97049.94;5031815;28;20049;-64
2021/10/28 03:30:11;;;;;;;0.70;0.63;;;;;;;25.24;35.03;97056.00;5030805;28;20022;-64
2021/10/28 03:32:37;;;;;;;0.60;0.60;;;;;;;25.21;34.77;97053.56;5008911;28;20055;-64
2021/10/28 03:35:05;;;;;;;0.60;0.60;;;;;;;25.22;35.04;97055.25;5030753;28;20021;-64
2021/10/28 03:37:40;;;;;;;0.68;0.63;;;;;;;25.22;35.05;97060.50;5018793;28;20111;-64
2021/10/28 04:02:49;;;;;;;0.60;0.60;;;;;;;25.21;34.91;97052.69;5031186;28;20033;-63
2021/10/28 04:04:39;;;;;;;0.50;0.50;;;;;;;25.20;34.96;97051.81;5022386;28;20062;-64
2021/10/28 04:30:42;;;;;;;0.52;0.52;;;;;;;25.17;35.16;97044.97;5033712;28;20036;-64
2021/10/28 04:33:07;;;;;;;0.63;0.63;;;;;;;25.17;35.22;97046.75;5032254;28;20029;-64
2021/10/28 04:35:48;;;;;;;0.52;0.50;;;;;;;25.17;35.22;97046.75;5033027;28;20148;-65
2021/10/28 04:38:13;;;;;;;0.40;0.40;;;;;;;25.13;35.18;97038.16;5034214;28;20033;-64
2021/10/28 04:40:40;;;;;;;0.50;0.50;;;;;;;25.15;35.19;97032.84;5031589;28;20606;-64
2021/10/28 04:43:05;;;;;;;1.95;0.60;;;;;;;25.17;35.22;97033.63;5031986;28;20483;-63
2021/10/28 04:45:31;;;;;;;0.50;0.50;;;;;;;25.17;35.11;97031.00;5034030;28;20029;-63
2021/10/28 04:47:56;;;;;;;0.70;0.70;;;;;;;25.17;34.99;97028.38;5034140;28;20491;-63
2021/10/28 04:50:21;;;;;;;0.80;0.80;;;;;;;25.15;35.14;97025.84;5033591;28;20014;-64
2021/10/28 04:52:47;;;;;;;0.60;0.60;;;;;;;25.17;35.18;97023.16;5021049;28;20033;-64
2021/10/28 04:55:12;;;;;;;0.70;0.70;;;;;;;25.16;35.07;97021.41;5017763;28;20022;-64
2021/10/28 04:57:38;;;;;;;0.70;0.68;;;;;;;25.17;34.88;97025.75;5016251;28;20471;-62
2021/10/28 05:00:05;;;;;;;0.80;0.50;;;;;;;25.16;34.91;97021.41;5033504;28;20028;-63
2021/10/28 05:02:30;;;;;;;0.80;0.60;;;;;;;25.15;35.04;97023.22;5031641;28;20033;-63
2021/10/28 05:04:55;;;;;;;0.70;0.70;;;;;;;25.16;34.90;97013.56;5032645;28;20037;-65
2021/10/28 05:07:21;;;;;;;1.15;0.90;;;;;;;25.15;35.03;97011.88;5028997;28;20778;-63
2021/10/28 05:09:46;;;;;;;0.70;0.70;;;;;;;25.15;35.06;97017.09;5011543;28;20107;-64
2021/10/28 05:12:12;;;;;;;0.60;0.60;;;;;;;25.15;34.84;97014.47;5030517;28;20585;-63
2021/10/28 05:14:38;;;;;;;1.58;0.93;;;;;;;25.15;34.89;97011.88;5032598;28;20021;-63
2021/10/28 05:17:03;;;;;;;1.02;0.80;;;;;;;25.15;34.90;97009.25;5013855;28;20505;-64
2021/10/28 05:19:31;;;;;;;0.95;0.90;;;;;;;25.15;34.83;97006.63;5016137;28;20076;-64
2021/10/28 05:21:56;;;;;;;0.80;0.80;;;;;;;25.15;34.94;97011.88;5032464;28;20028;-64
2021/10/28 05:24:22;;;;;;;2.25;1.00;;;;;;;25.14;34.97;97015.41;5018682;28;20056;-64
2021/10/28 05:26:47;;;;;;;0.70;0.70;;;;;;;25.14;34.94;97015.41;5030483;28;20037;-63
2021/10/28 05:29:12;;;;;;;0.75;0.60;;;;;;;25.13;35.06;97003.22;5032610;28;20378;-64
2021/10/28 05:31:38;;;;;;;0.77;0.77;;;;;;;25.14;34.83;97004.91;5032303;28;20033;-63
2021/10/28 05:34:03;;;;;;;0.75;0.75;;;;;;;25.14;35.00;96997.06;5032126;28;20025;-64
2021/10/28 05:36:29;;;;;;;0.70;0.70;;;;;;;25.13;35.13;97003.22;5014795;28;20025;-64
2021/10/28 05:38:54;;;;;;;0.77;0.77;;;;;;;25.13;34.98;97000.59;5014573;28;20025;-64
2021/10/28 05:41:20;;;;;;;0.80;0.80;;;;;;;25.13;35.16;97003.22;5032765;28;20478;-64
2021/10/28 05:43:45;;;;;;;0.68;0.68;;;;;;;25.12;35.14;97001.50;5032777;28;20080;-63
2021/10/28 05:46:11;;;;;;;0.88;0.85;;;;;;;25.13;34.89;97005.84;5016097;28;20025;-63
2021/10/28 05:48:36;;;;;;;0.70;0.70;;;;;;;25.12;34.98;97007.63;5029538;28;20036;-64
2021/10/28 05:51:02;;;;;;;0.77;0.60;;;;;;;25.14;35.07;97007.53;5031394;28;20037;-64
2021/10/28 05:53:27;;;;;;;0.60;0.60;;;;;;;25.13;34.85;97008.47;5030981;28;20029;-64
2021/10/28 05:55:53;;;;;;;1.27;0.88;;;;;;;25.13;34.98;97005.84;5015101;28;20025;-64
2021/10/28 05:58:18;;;;;;;1.08;0.90;;;;;;;25.13;35.06;97011.09;5034391;28;20018;-64
2021/10/28 06:00:44;;;;;;;1.00;0.90;;;;;;;25.13;34.98;97014.56;5043754;28;20029;-63
2021/10/28 06:03:10;;;;;;;1.00;0.80;;;;;;;25.13;35.00;97005.84;5045793;28;20026;-64
2021/10/28 06:05:36;;;;;;;0.93;0.70;;;;;;;25.13;34.94;97011.09;5043653;28;20049;-65
2021/10/28 06:08:02;;;;;;;1.70;0.90;;;;;;;25.14;35.00;97012.78;5038782;28;20026;-63
2021/10/28 06:10:27;;;;;;;0.80;0.80;;;;;;;25.13;34.89;97008.47;5031839;28;20036;-63
2021/10/28 06:12:55;;;;;;;0.70;0.70;;;;;;;25.12;35.08;97012.00;5034599;28;20033;-63
2021/10/28 06:15:21;;;;;;;0.63;0.63;;;;;;;25.11;35.10;97012.94;5033611;28;20052;-63
2021/10/28 06:17:57;;;;;;;0.63;0.63;;;;;;;25.13;35.12;97018.97;5033374;28;20041;-62
2021/10/28 06:20:22;;;;;;;0.98;0.70;;;;;;;25.09;35.10;97012.16;5032144;28;20040;-63
2021/10/28 06:22:48;;;;;;;0.73;0.68;;;;;;;25.12;35.04;97012.00;5030589;28;20037;-64
2021/10/28 06:25:13;;;;;;;0.75;0.70;;;;;;;25.12;34.92;97012.00;5015184;28;20028;-63
2021/10/28 06:27:39;;;;;;;0.80;0.80;;;;;;;25.13;34.93;97005.84;5032563;28;20028;-64
2021/10/28 06:30:05;;;;;;;0.60;0.60;;;;;;;25.13;34.94;97016.34;5013767;28;20033;-64
2021/10/28 06:32:31;;;;;;;0.88;0.70;;;;;;;25.12;35.03;97006.75;5032799;28;20323;-64
2021/10/28 06:34:57;;;;;;;0.52;0.52;;;;;;;25.10;35.07;97004.22;5032403;28;20411;-64
2021/10/28 06:37:23;;;;;;;0.70;0.70;;;;;;;25.12;35.01;97010.22;5029764;28;20029;-65
2021/10/28 06:39:48;;;;;;;0.60;0.60;;;;;;;25.11;35.06;97011.16;5014058;28;20032;-64
2021/10/28 06:42:14;;;;;;;0.52;0.52;;;;;;;25.12;35.04;97006.75;5031381;28;20454;-64
2021/10/28 06:44:41;;;;;;;0.60;0.57;;;;;;;25.11;34.96;97007.69;5031252;28;20083;-63
2021/10/28 06:47:06;;;;;;;0.57;0.57;;;;;;;25.12;35.11;97012.00;5014671;28;20188;-63
2021/10/28 06:49:34;;;;;;;0.70;0.70;;;;;;;25.12;35.06;97006.75;5034088;28;20199;-64
2021/10/28 06:52:01;;;;;;;0.60;0.60;;;;;;;25.11;35.15;97005.06;5000380;28;20063;-64
2021/10/28 06:54:32;;;;;;;0.70;0.70;;;;;;;25.11;34.95;97000.69;5030075;28;20464;-64
2021/10/28 06:57:18;;;;;;;;;;;;;;;25.12;34.92;97004.13;5030373;28;20017;-64
2021/10/28 07:04:57;;;;;;;0.52;0.52;;;;;;;25.08;35.18;96994.69;5014898;28;20017;-64
2021/10/28 07:07:23;;;;;;;0.52;0.52;;;;;;;25.08;35.07;96999.94;5027219;28;20022;-64
2021/10/28 07:09:59;;;;;;;0.93;0.57;;;;;;;25.09;35.28;97006.91;5029959;28;20108;-63
2021/10/28 07:12:51;;;;;;;0.47;0.47;;;;;;;25.08;34.98;97005.19;5013944;28;20029;-64
2021/10/28 07:15:20;;;;;;;0.60;0.60;;;;;;;25.07;35.01;97000.88;5031045;28;20110;-65
2021/10/28 07:23:40;;;;;;;0.50;0.50;;;;;;;25.08;35.14;97005.19;4999815;28;20037;-63
2021/10/28 07:36:38;;;;;;;0.50;0.30;;;;;;;25.07;35.08;97019.22;5030236;28;20035;-63
2021/10/28 08:06:27;;;;;;;0.60;0.60;;;;;;;25.05;35.18;97012.28;5033250;28;20565;-63
2021/10/28 08:19:42;;;;;;;0.50;0.50;;;;;;;25.06;35.22;97002.66;5036515;28;20026;-63
2021/10/28 08:30:05;;;;;;;0.65;0.63;;;;;;;25.06;35.24;96989.56;5033965;28;20040;-63
2021/10/28 08:32:31;;;;;;;0.45;0.45;;;;;;;25.06;35.32;96986.94;5016593;28;20553;-63
2021/10/28 08:34:59;;;;;;;0.50;0.50;;;;;;;25.07;35.17;96987.75;5032762;28;20028;-63
2021/10/28 08:37:31;;;;;;;0.70;0.68;;;;;;;25.08;35.14;96989.47;5033444;28;20322;-63
2021/10/28 08:39:56;;;;;;;0.70;0.70;;;;;;;25.08;35.36;96989.47;5019416;28;20120;-64
2021/10/28 08:42:23;;;;;;;0.50;0.50;;;;;;;25.08;35.20;96989.47;5033203;28;20450;-62
2021/10/28 08:44:50;;;;;;;0.65;0.65;;;;;;;25.08;35.18;96981.59;5032089;28;20025;-62
2021/10/28 08:47:16;;;;;;;0.60;0.60;;;;;;;25.08;35.25;96981.59;5015301;28;20028;-64
2021/10/28 08:49:48;;;;;;;0.60;0.60;;;;;;;25.08;35.31;96984.22;5018101;28;20029;-64
2021/10/28 08:57:22;;;;;;;0.65;0.65;;;;;;;25.10;35.21;96971.91;5034411;28;20021;-64
2021/10/28 09:24:39;;;;;;;0.45;0.45;;;;;;;25.11;35.53;96965.72;5031303;28;20121;-64
2021/10/28 09:43:55;;;;;;;0.52;0.52;;;;;;;25.13;35.39;96966.53;5032030;28;20047;-62
2021/10/28 09:51:19;;;;;;;0.40;0.40;;;;;;;25.15;35.45;96962.03;5033240;28;20021;-62
2021/10/28 09:59:44;;;;;;;0.68;0.60;;;;;;;25.15;35.47;96954.16;5019297;28;20407;-64
2021/10/28 10:02:19;;;;;;;0.85;0.60;;;;;;;25.16;35.27;96958.47;5031071;28;20483;-65
2021/10/28 10:04:46;;;;;;;0.73;0.50;;;;;;;25.17;35.36;96954.97;5031695;28;20084;-65
2021/10/28 10:07:17;;;;;;;0.70;0.63;;;;;;;25.17;35.21;96955.78;5021101;28;20076;-64
2021/10/28 10:09:42;;;;;;;0.50;0.50;;;;;;;25.18;35.35;96964.53;5032393;28;20136;-65
2021/10/28 10:12:09;;;;;;;0.47;0.47;;;;;;;25.18;35.46;96959.28;5033189;28;20021;-64
2021/10/28 10:14:38;;;;;;;0.50;0.50;;;;;;;25.20;35.37;96965.28;5027662;28;20488;-64
2021/10/28 10:17:07;;;;;;;0.50;0.50;;;;;;;25.20;35.36;96957.41;5016607;28;20037;-63
2021/10/28 10:19:34;;;;;;;0.82;0.60;;;;;;;25.20;35.48;96957.41;5013840;28;20037;-63
2021/10/28 10:22:06;;;;;;;0.57;0.57;;;;;;;25.21;35.34;96959.13;5032766;28;20128;-63
2021/10/28 10:24:55;;;;;;;0.45;0.45;;;;;;;25.22;35.63;96955.59;5018666;28;20417;-63
2021/10/28 11:20:42;;;;;;;;;;;;;;;;;;;;;
2021/10/28 12:46:01;;;;;;;0.40;0.30;;;;;;;25.29;36.21;96802.22;5031757;28;20095;-63
2021/10/28 12:51:27;;;;;;;0.50;0.50;;;;;;;25.29;36.13;96799.59;5034351;28;20446;-64
2021/10/28 13:49:03;;;;;;;0.30;0.30;;;;;;;25.36;36.51;96752.91;5024259;28;20692;-62
2021/10/28 14:29:41;;;;;;;10.50;5.43;;;;;;;25.05;31.24;96716.00;5028410;28;20160;-63
2021/10/28 15:29:09;;;;;;;6.43;2.70;;;;;;;24.79;33.46;96702.41;5026277;28;20086;-65
2021/10/28 15:34:36;;;;;;;6.53;3.17;;;;;;;24.85;33.50;96695.19;5015992;28;20538;-66
2021/10/28 16:23:11;;;;;;;7.47;2.35;;;;;;;25.15;34.14;96692.78;5033454;28;20044;-65
2021/10/28 16:25:37;;;;;;;6.30;2.40;;;;;;;25.14;33.97;96687.63;5033673;28;20491;-65
2021/10/28 16:28:03;;;;;;;5.40;2.60;;;;;;;25.16;34.10;96689.25;5035720;28;20025;-66
2021/10/28 16:30:28;;;;;;;5.68;2.38;;;;;;;25.18;34.08;96691.78;5033345;28;22807;-65
2021/10/28 16:32:54;;;;;;;6.93;2.60;;;;;;;25.18;34.12;96689.16;5009788;28;20021;-65
2021/10/28 16:35:19;;;;;;;3.40;2.20;;;;;;;25.20;34.32;96684.66;5015161;28;20488;-65
2021/10/28 16:37:45;;;;;;;6.97;2.25;;;;;;;25.20;34.16;96689.91;5034680;28;20597;-65
2021/10/28 16:40:10;;;;;;;9.60;2.33;;;;;;;25.22;34.17;96693.31;5033218;28;20628;-65
2021/10/28 16:42:36;;;;;;;4.38;2.10;;;;;;;25.23;34.17;96695.00;5034262;28;20035;-66
2021/10/28 16:45:02;;;;;;;4.60;2.13;;;;;;;25.24;34.26;96694.06;5030532;28;20458;-66
2021/10/28 16:47:30;;;;;;;5.18;2.38;;;;;;;25.24;34.18;96696.69;5031690;28;20029;-65
2021/10/28 16:49:55;;;;;;;6.38;2.30;;;;;;;25.25;34.23;96697.56;5019450;28;20051;-65
2021/10/28 16:52:20;;;;;;;6.13;2.13;;;;;;;25.26;34.15;96694.84;5033093;28;20021;-66
2021/10/28 16:54:46;;;;;;;5.25;2.10;;;;;;;25.27;34.31;96695.69;5013021;28;20403;-65
2021/10/28 16:57:11;;;;;;;7.15;2.25;;;;;;;25.27;34.16;96699.16;4999998;28;20276;-66
2021/10/28 16:59:37;;;;;;;5.45;2.20;;;;;;;25.28;34.23;96700.84;5032395;28;20036;-65
2021/10/28 17:02:02;;;;;;;4.45;2.28;;;;;;;25.29;34.17;96701.72;5031578;28;20102;-64
2021/10/28 17:04:28;;;;;;;3.92;2.13;;;;;;;25.29;34.32;96702.53;5034558;28;20103;-64
2021/10/28 17:06:54;;;;;;;3.83;2.30;;;;;;;25.30;34.34;96704.25;5010834;28;20055;-65
2021/10/28 17:09:20;;;;;;;5.07;2.42;;;;;;;25.31;34.14;96707.72;5034128;28;20037;-66
2021/10/28 17:11:45;;;;;;;3.67;2.20;;;;;;;25.31;34.31;96703.31;5029864;28;20037;-66
2021/10/28 17:14:10;;;;;;;6.13;2.53;;;;;;;25.33;34.23;96710.25;5023202;28;20040;-66
2021/10/28 17:16:37;;;;;;;7.53;2.65;;;;;;;25.33;34.18;96710.25;5029857;28;20161;-65
2021/10/28 17:19:02;;;;;;;7.07;2.78;;;;;;;25.33;34.13;96710.25;4993475;28;20032;-65
2021/10/28 17:21:28;;;;;;;7.22;2.47;;;;;;;25.34;34.27;96706.69;5011750;28;20029;-66
2021/10/28 17:24:05;;;;;;;9.35;2.53;;;;;;;25.33;34.30;96716.38;5025169;28;20122;-65
2021/10/28 17:26:31;;;;;;;11.10;2.83;;;;;;;25.34;34.32;96707.56;5024643;28;20032;-63
2021/10/28 17:29:01;;;;;;;6.00;2.50;;;;;;;25.35;34.53;96708.41;5024917;28;20034;-64
2021/10/28 17:31:32;;;;;;;9.25;2.80;;;;;;;25.35;34.37;96711.03;5023410;28;20478;-65
2021/10/28 17:33:57;;;;;;;7.38;2.90;;;;;;;25.36;34.38;96712.72;5022161;28;20048;-64
2021/10/28 17:36:24;;;;;;;6.32;2.60;;;;;;;25.37;34.58;96711.78;5025619;28;20042;-66
2021/10/28 17:38:50;;;;;;;6.88;2.60;;;;;;;25.36;34.43;96697.81;5027484;28;20570;-65
2021/10/28 17:41:16;;;;;;;6.57;3.08;;;;;;;25.37;34.42;96696.91;5022265;28;20033;-64
2021/10/28 17:43:45;;;;;;;6.68;2.80;;;;;;;25.39;34.57;96699.44;5026137;28;20037;-65
2021/10/28 17:46:12;;;;;;;9.23;3.35;;;;;;;25.40;34.54;96695.91;5023784;28;20273;-64
2021/10/28 17:48:37;;;;;;;6.07;2.75;;;;;;;25.40;34.63;96693.28;5024770;28;20041;-66
2021/10/28 17:51:03;;;;;;;6.88;2.60;;;;;;;25.40;34.64;96703.78;5021920;28;20033;-67
2021/10/28 17:53:29;;;;;;;8.75;2.90;;;;;;;25.41;34.60;96697.59;5014176;28;20400;-65
2021/10/28 17:55:54;;;;;;;7.85;2.95;;;;;;;25.41;34.61;96703.69;5027593;28;20033;-65
2021/10/28 17:58:20;;;;;;;5.90;2.70;;;;;;;25.41;34.52;96702.84;5028315;28;20446;-65
2021/10/28 18:00:45;;;;;;;6.63;2.38;;;;;;;25.41;34.66;96700.22;5024186;28;20438;-65
2021/10/28 18:03:11;;;;;;;13.50;3.88;;;;;;;25.41;34.55;96700.22;5030640;28;20223;-65
2021/10/28 18:05:36;;;;;;;9.02;2.63;;;;;;;25.41;34.45;96697.59;5029690;28;20086;-64
2021/10/28 18:08:03;;;;;;;11.18;2.90;;;;;;;25.40;34.52;96703.78;5030414;28;20373;-65
2021/10/28 18:10:29;;;;;;;8.20;3.20;;;;;;;25.42;34.47;96699.28;5030817;28;20026;-64
2021/10/28 18:12:54;;;;;;;8.02;3.17;;;;;;;25.42;34.61;96696.66;5016495;28;20067;-64
2021/10/28 18:15:20;;;;;;;4.97;2.70;;;;;;;25.42;34.71;96696.66;5026462;28;20603;-65
2021/10/28 18:17:45;;;;;;;8.13;2.78;;;;;;;25.43;34.67;96701.81;5030642;28;21997;-64
2021/10/28 18:20:11;;;;;;;7.72;2.88;;;;;;;25.43;34.77;96698.34;5037703;28;20055;-65
2021/10/28 18:22:39;;;;;;;5.18;2.63;;;;;;;25.43;34.76;96699.19;5039130;28;20047;-65
2021/10/28 18:25:06;;;;;;;10.60;3.08;;;;;;;25.44;34.64;96708.75;5041420;28;20028;-64
2021/10/28 18:27:32;;;;;;;5.45;2.53;;;;;;;25.44;34.57;96700.88;5034489;28;20067;-67
2021/10/28 18:29:58;;;;;;;6.47;2.40;;;;;;;25.45;34.79;96699.13;5029455;28;20025;-63
2021/10/28 18:32:24;;;;;;;6.88;2.42;;;;;;;25.45;34.72;96691.25;5009315;28;20041;-64
2021/10/28 18:34:49;;;;;;;9.88;3.00;;;;;;;25.45;34.67;96691.25;5024766;28;20033;-64
2021/10/28 18:37:15;;;;;;;6.55;2.90;;;;;;;25.46;34.52;96682.44;5023468;28;20029;-64
2021/10/28 18:39:40;;;;;;;11.05;2.58;;;;;;;25.45;34.86;96678.13;5007641;28;20021;-64
2021/10/28 18:42:07;;;;;;;7.97;2.50;;;;;;;25.46;34.74;96679.81;5014468;28;20086;-63
2021/10/28 18:44:32;;;;;;;14.25;2.80;;;;;;;25.45;34.83;96683.38;5019977;28;20026;-63
2021/10/28 18:46:58;;;;;;;6.18;3.05;;;;;;;25.45;34.67;96675.50;5022287;28;20686;-63
2021/10/28 18:49:23;;;;;;;6.43;2.53;;;;;;;25.44;34.80;96668.59;5021664;28;20029;-64
2021/10/28 18:51:49;;;;;;;7.53;3.15;;;;;;;25.44;34.74;96669.41;5020306;28;20025;-67
2021/10/28 18:54:17;;;;;;;8.38;2.80;;;;;;;25.45;34.74;96678.13;5023587;28;20033;-64
2021/10/28 18:56:43;;;;;;;6.22;2.58;;;;;;;25.45;34.88;96672.88;5003971;28;20407;-64
2021/10/28 18:59:08;;;;;;;5.13;2.30;;;;;;;25.47;34.87;96659.69;5003639;28;20168;-64
2021/10/28 19:01:36;;;;;;;9.70;2.50;;;;;;;25.47;34.81;96671.03;5020855;28;20251;-65
2021/10/28 19:04:02;;;;;;;6.22;2.60;;;;;;;25.48;34.84;96661.38;5019811;28;20037;-63
2021/10/28 19:06:27;;;;;;;6.03;2.45;;;;;;;25.48;34.71;96667.50;5002299;28;20117;-65
2021/10/28 19:08:52;;;;;;;5.55;2.38;;;;;;;25.49;35.05;96658.69;5021117;28;20551;-62
2021/10/28 19:11:18;;;;;;;3.95;2.50;;;;;;;25.50;34.86;96664.75;5020216;28;20041;-64
2021/10/28 19:13:44;;;;;;;6.53;2.28;;;;;;;25.51;34.66;96662.06;5018345;28;20300;-66
2021/10/28 19:16:10;;;;;;;7.15;2.47;;;;;;;25.52;34.94;96660.28;5002091;28;20037;-64
2021/10/28 19:18:36;;;;;;;3.55;2.30;;;;;;;25.52;34.81;96658.50;5021662;28;20110;-64
2021/10/28 19:21:02;;;;;;;3.92;2.25;;;;;;;25.53;34.97;96648.84;5009702;28;20566;-65
2021/10/28 19:23:27;;;;;;;7.18;2.70;;;;;;;25.53;34.91;96644.47;5024523;28;20021;-63
2021/10/28 19:25:53;;;;;;;3.25;1.80;;;;;;;25.54;34.90;96650.53;5024746;28;20042;-65
2021/10/28 19:28:19;;;;;;;2.88;2.08;;;;;;;25.53;34.97;96641.84;5026267;28;20033;-66
2021/10/28 19:30:51;;;;;;;11.52;2.22;;;;;;;25.54;35.02;96640.91;5003134;28;20033;-64
2021/10/28 19:33:20;;;;;;;3.17;2.10;;;;;;;25.55;34.96;96647.84;5023039;28;20028;-65
2021/10/28 19:35:51;;;;;;;6.25;2.25;;;;;;;25.55;35.12;96642.59;5006749;28;20162;-65
2021/10/28 19:46:13;;;;;;;3.92;2.30;;;;;;;25.56;35.15;96638.22;5019019;28;20593;-64
2021/10/28 19:48:40;;;;;;;4.10;2.20;;;;;;;25.57;35.26;96645.16;5025397;28;20040;-63
2021/10/28 19:51:06;;;;;;;3.75;1.98;;;;;;;25.57;35.19;96653.91;5004139;28;20032;-66
2021/10/28 19:53:31;;;;;;;5.45;1.77;;;;;;;25.57;35.34;96651.28;5032290;28;20529;-63
2021/10/28 19:56:08;;;;;;;5.90;2.30;;;;;;;25.59;35.46;96650.34;5008495;28;20025;-65
2021/10/28 19:58:38;;;;;;;5.90;1.80;;;;;;;25.56;35.31;96644.31;5033779;28;20032;-61
2021/10/28 20:01:15;;;;;;;5.50;1.80;;;;;;;25.57;35.30;96643.41;5013815;28;20392;-63
2021/10/28 20:03:57;;;;;;;3.90;1.88;;;;;;;25.58;35.24;96641.59;5030119;28;20550;-65
2021/10/28 20:14:32;;;;;;;3.92;1.75;;;;;;;25.59;35.45;96629.34;5029379;28;20084;-64
2021/10/28 20:22:26;;;;;;;4.15;1.80;;;;;;;25.57;35.48;96630.28;5030368;28;20044;-63
2021/10/28 20:24:52;;;;;;;4.95;1.98;;;;;;;25.58;35.39;96636.38;5001393;28;20292;-64
2021/10/28 20:27:17;;;;;;;4.88;1.90;;;;;;;25.58;35.36;96625.88;5029663;28;20483;-64
2021/10/28 20:29:43;;;;;;;2.85;1.88;;;;;;;25.59;35.52;96626.72;5030337;28;20090;-63
2021/10/28 20:32:08;;;;;;;2.30;1.70;;;;;;;25.59;35.50;96624.09;5029387;28;20026;-63
2021/10/28 20:37:05;;;;;;;4.97;1.90;;;;;;;25.59;35.53;96626.72;5029775;28;20090;-65
2021/10/28 20:39:31;;;;;;;;;;;;;;;25.59;35.39;96626.72;5029012;28;20052;-64
2021/10/28 20:41:57;;;;;;;4.50;2.00;;;;;;;25.60;35.46;96626.66;5024265;28;20442;-64
2021/10/28 20:44:22;;;;;;;2.33;1.63;;;;;;;25.59;35.50;96626.72;5010176;28;20074;-65
2021/10/28 20:46:48;;;;;;;3.28;1.50;;;;;;;25.55;35.48;96624.22;5019265;28;20065;-63
2021/10/28 20:49:13;;;;;;;2.63;1.67;;;;;;;25.56;35.52;96627.75;5024277;28;20032;-65